Time;durP1;ratioP1;P1;durP2;ratioP2;P2;SDS_P1;SDS_P2;PMS_P1;PMS_P2;Temp;Humidity;BMP_temperature;BMP_pressure;BME280_temperature;BME280_humidity;BME280_pressure;Samples;Min_cycle;Max_cycle;Signal;HPM_P1;HPM_P2
2023/05/29 00:02:23;;;;;;;5.10;2.60;;;;;;;10.54;70.54;96846.60;109024;1269;22523;-82
2023/05/29 00:04:55;;;;;;;4.00;2.90;;;;;;;10.43;70.78;96839.81;109047;1270;22508;-82
2023/05/29 00:07:26;;;;;;;4.10;2.60;;;;;;;10.37;71.09;96841.80;109101;1263;24263;-82
2023/05/29 00:09:57;;;;;;;6.20;2.70;;;;;;;10.37;71.29;96844.18;109122;1270;25359;-82
2023/05/29 00:12:30;;;;;;;4.60;3.00;;;;;;;10.42;71.52;96840.66;109072;1270;22541;-82
2023/05/29 00:15:04;;;;;;;4.50;2.80;;;;;;;10.48;71.61;96841.55;109074;1267;22508;-82
2023/05/29 00:17:35;;;;;;;5.60;2.80;;;;;;;10.50;71.44;96834.69;109107;1263;22549;-82
2023/05/29 00:20:10;;;;;;;4.40;2.60;;;;;;;10.52;71.38;96832.72;109095;1266;23143;-82
2023/05/29 00:22:42;;;;;;;4.90;2.70;;;;;;;10.42;71.19;96824.66;109191;1262;22499;-83
2023/05/29 00:25:12;;;;;;;3.90;2.80;;;;;;;10.30;71.35;96825.40;109251;1270;22531;-82
2023/05/29 00:27:44;;;;;;;6.60;2.90;;;;;;;10.31;71.84;96826.35;109150;1270;22686;-82
2023/05/29 00:30:15;;;;;;;4.80;2.90;;;;;;;10.34;71.80;96825.59;109267;1270;22522;-82
2023/05/29 00:32:46;;;;;;;4.00;2.50;;;;;;;10.40;71.90;96824.66;109184;1247;22511;-83
2023/05/29 00:35:17;;;;;;;5.10;2.80;;;;;;;10.47;71.81;96828.02;109152;1263;22519;-82
2023/05/29 00:37:48;;;;;;;4.10;2.50;;;;;;;10.39;71.44;96825.36;109140;1269;22571;-82
2023/05/29 00:40:19;;;;;;;6.20;2.90;;;;;;;10.23;71.35;96828.01;109190;1264;22707;-83
2023/05/29 00:42:52;;;;;;;3.20;2.60;;;;;;;10.06;71.61;96824.16;109218;1269;22523;-83
2023/05/29 00:45:23;;;;;;;5.00;3.00;;;;;;;9.97;71.93;96824.29;109171;1263;22527;-83
2023/05/29 00:47:54;;;;;;;4.20;3.00;;;;;;;10.00;72.39;96820.69;109270;1264;25284;-83
2023/05/29 00:50:25;;;;;;;4.80;3.30;;;;;;;10.09;72.54;96825.52;109227;1270;23918;-82
2023/05/29 00:52:57;;;;;;;6.90;3.40;;;;;;;10.17;72.38;96824.14;109223;1270;22525;-83
2023/05/29 00:55:28;;;;;;;8.70;3.20;;;;;;;10.24;72.34;96826.10;109154;1270;22541;-82
2023/05/29 00:57:59;;;;;;;5.20;3.20;;;;;;;10.27;72.29;96825.24;109171;1270;22637;-83
2023/05/29 01:00:33;;;;;;;5.30;2.90;;;;;;;10.29;72.42;96822.38;109099;1270;22508;-83
2023/05/29 01:03:05;;;;;;;6.30;2.90;;;;;;;10.33;72.36;96825.01;109118;1267;22515;-83
2023/05/29 01:05:36;;;;;;;4.90;2.70;;;;;;;10.38;72.40;96820.84;109146;1270;23744;-83
2023/05/29 01:08:07;;;;;;;7.00;3.10;;;;;;;10.42;72.32;96813.21;109205;1270;22661;-83
2023/05/29 01:10:42;;;;;;;6.40;3.30;;;;;;;10.45;72.19;96814.10;109215;1263;25390;-84
2023/05/29 01:13:20;;;;;;;3.70;2.80;;;;;;;10.44;71.91;96812.10;109216;1270;22515;-83
2023/05/29 01:15:59;;;;;;;4.10;2.80;;;;;;;10.34;71.88;96812.13;109192;1270;22520;-83
2023/05/29 01:18:40;;;;;;;5.20;3.20;;;;;;;10.23;71.94;96809.77;109089;1263;27828;-84
2023/05/29 01:21:22;;;;;;;4.70;3.10;;;;;;;10.15;72.37;96809.47;109395;1270;22588;-83
2023/05/29 01:24:10;;;;;;;7.40;4.00;;;;;;;10.18;72.43;96813.48;109107;1270;22640;-83
2023/05/29 01:26:52;;;;;;;5.00;3.50;;;;;;;10.19;72.42;96813.16;109132;1270;22544;-83
2023/05/29 01:29:27;;;;;;;4.40;3.20;;;;;;;10.21;72.28;96813.27;109157;1269;22563;-83
2023/05/29 01:31:59;;;;;;;5.60;3.00;;;;;;;10.21;72.26;96811.42;109150;1268;22717;-83
2023/05/29 01:34:30;;;;;;;4.40;2.90;;;;;;;10.18;72.29;96812.85;109195;1270;25230;-83
2023/05/29 01:37:01;;;;;;;6.60;3.10;;;;;;;10.17;72.48;96808.84;109199;1270;23285;-82
2023/05/29 01:39:36;;;;;;;6.20;3.20;;;;;;;10.19;72.47;96810.41;109167;1270;22515;-82
2023/05/29 01:42:09;;;;;;;5.70;3.10;;;;;;;10.20;72.50;96811.14;109131;1263;23401;-82
2023/05/29 01:44:40;;;;;;;3.50;2.70;;;;;;;10.23;72.33;96813.80;109081;1270;22547;-83
2023/05/29 01:47:12;;;;;;;4.90;3.00;;;;;;;10.27;72.19;96815.32;109180;1270;22536;-82
2023/05/29 01:49:44;;;;;;;3.80;3.00;;;;;;;10.22;71.81;96813.33;109145;1270;31706;-83
2023/05/29 01:52:15;;;;;;;3.80;2.60;;;;;;;10.19;71.91;96813.06;109267;1270;26501;-83
2023/05/29 01:54:46;;;;;;;5.20;2.60;;;;;;;10.18;71.99;96811.00;109136;1266;25325;-83
2023/05/29 01:57:18;;;;;;;3.60;2.50;;;;;;;10.18;71.82;96807.13;109103;1269;22518;-83
2023/05/29 01:59:49;;;;;;;4.60;2.60;;;;;;;10.15;71.85;96808.25;109163;1263;22804;-83
2023/05/29 02:02:24;;;;;;;6.10;3.60;;;;;;;10.13;71.84;96804.70;109249;1270;22518;-83
2023/05/29 02:04:55;;;;;;;4.40;2.80;;;;;;;10.14;71.91;96801.95;109235;1264;22992;-83
2023/05/29 02:07:26;;;;;;;5.10;3.10;;;;;;;10.17;71.95;96804.27;109163;1270;24301;-83
2023/05/29 02:09:57;;;;;;;4.80;2.40;;;;;;;10.19;71.82;96804.31;109106;1270;22508;-82
2023/05/29 02:12:28;;;;;;;5.30;2.90;;;;;;;10.13;71.55;96798.88;109096;1270;22544;-82
2023/05/29 02:14:58;;;;;;;4.00;2.50;;;;;;;10.04;71.50;96798.90;109105;1270;22574;-82
2023/05/29 02:17:30;;;;;;;7.90;3.40;;;;;;;10.03;71.60;96796.84;109109;1270;22508;-83
2023/05/29 02:20:04;;;;;;;5.40;2.80;;;;;;;10.02;71.65;96798.59;109070;1263;22517;-83
2023/05/29 02:22:35;;;;;;;7.30;3.10;;;;;;;10.05;71.76;96797.41;109120;1263;22650;-83
2023/05/29 02:25:07;;;;;;;5.90;2.60;;;;;;;10.07;71.48;96797.73;109079;1270;22599;-83
2023/05/29 02:27:38;;;;;;;3.60;2.90;;;;;;;10.01;71.28;96795.52;109011;1266;22524;-83
2023/05/29 02:30:10;;;;;;;4.60;3.20;;;;;;;9.99;71.49;96792.60;109062;1266;25230;-83
2023/05/29 02:32:41;;;;;;;6.30;2.60;;;;;;;9.96;71.30;96787.89;109119;1266;22539;-83
2023/05/29 02:35:13;;;;;;;4.30;2.90;;;;;;;9.96;71.19;96786.41;109057;1270;22511;-83
2023/05/29 02:37:44;;;;;;;7.00;3.00;;;;;;;9.96;71.30;96788.91;109047;1270;22559;-83
2023/05/29 02:40:15;;;;;;;5.80;2.90;;;;;;;9.97;71.27;96790.17;109045;1267;22642;-83
2023/05/29 02:42:47;;;;;;;5.20;3.10;;;;;;;9.95;71.06;96788.59;109031;1270;22508;-83
2023/05/29 02:45:18;;;;;;;6.70;3.00;;;;;;;9.89;71.24;96789.15;109058;1270;22558;-83
2023/05/29 02:47:48;;;;;;;6.10;3.10;;;;;;;9.87;71.25;96793.81;109072;1263;22515;-83
2023/05/29 02:50:19;;;;;;;5.80;2.90;;;;;;;9.82;71.41;96791.48;109075;1270;22514;-83
2023/05/29 02:52:50;;;;;;;5.00;2.40;;;;;;;9.74;71.61;96791.72;109080;1269;25440;-83
2023/05/29 02:55:21;;;;;;;3.70;2.80;;;;;;;9.70;71.95;96785.05;109049;1263;22521;-83
2023/05/29 02:57:55;;;;;;;5.20;2.80;;;;;;;9.68;71.92;96784.99;109072;1270;22536;-83
2023/05/29 03:00:26;;;;;;;6.30;2.90;;;;;;;9.68;72.18;96787.38;109084;1263;22621;-83
2023/05/29 03:02:56;;;;;;;5.10;2.90;;;;;;;9.66;72.15;96785.54;109065;1270;25386;-83
2023/05/29 03:05:27;;;;;;;5.10;2.70;;;;;;;9.66;72.40;96785.11;109101;1263;22658;-83
2023/05/29 03:07:58;;;;;;;5.70;3.00;;;;;;;9.69;72.54;96776.73;109104;1270;22940;-83
2023/05/29 03:10:29;;;;;;;5.50;3.10;;;;;;;9.70;72.52;96782.50;109083;1269;22927;-83
2023/05/29 03:13:00;;;;;;;5.60;3.10;;;;;;;9.69;72.61;96781.39;109043;1270;22511;-83
2023/05/29 03:15:31;;;;;;;5.90;3.30;;;;;;;9.71;72.80;96786.16;109066;1270;22591;-83
2023/05/29 03:18:02;;;;;;;4.60;2.70;;;;;;;9.76;72.93;96784.47;109091;1270;22519;-83
2023/05/29 03:20:32;;;;;;;3.80;2.70;;;;;;;9.81;72.87;96786.24;109093;1263;22530;-83
2023/05/29 03:23:03;;;;;;;4.50;3.10;;;;;;;9.84;72.96;96785.86;109121;1263;22514;-83
2023/05/29 03:25:34;;;;;;;5.10;2.80;;;;;;;9.89;73.04;96784.71;109068;1257;24142;-83
2023/05/29 03:28:05;;;;;;;4.20;2.80;;;;;;;9.95;73.12;96786.74;109094;1264;22514;-83
2023/05/29 03:30:37;;;;;;;3.70;2.30;;;;;;;10.00;73.11;96784.62;109186;1263;22541;-83
2023/05/29 03:33:08;;;;;;;5.60;3.20;;;;;;;10.07;73.18;96784.80;109449;1263;22530;-83
2023/05/29 03:35:39;;;;;;;4.20;3.10;;;;;;;10.15;73.12;96786.05;109439;1270;22517;-83
2023/05/29 03:38:10;;;;;;;5.10;2.40;;;;;;;10.23;73.16;96788.95;109487;1263;24225;-83
2023/05/29 03:40:42;;;;;;;6.30;3.00;;;;;;;10.31;73.02;96787.72;109477;1267;22518;-82
2023/05/29 03:43:15;;;;;;;4.00;2.60;;;;;;;10.33;72.92;96787.33;109377;1267;24192;-83
2023/05/29 03:45:46;;;;;;;5.40;3.20;;;;;;;10.39;73.03;96784.38;109486;1269;22547;-83
2023/05/29 03:48:18;;;;;;;5.10;2.70;;;;;;;10.46;73.12;96786.48;109175;1264;22554;-83
2023/05/29 03:50:50;;;;;;;5.00;2.80;;;;;;;10.54;73.04;96786.05;109182;1263;22605;-83
2023/05/29 03:53:21;;;;;;;4.40;2.70;;;;;;;10.61;73.01;96786.88;109426;1263;22518;-83
2023/05/29 03:55:52;;;;;;;3.80;2.90;;;;;;;10.63;72.92;96794.28;109229;1267;22595;-82
2023/05/29 03:58:26;;;;;;;5.40;2.80;;;;;;;10.62;72.82;96792.70;109185;1263;22660;-83
2023/05/29 04:00:59;;;;;;;3.70;2.90;;;;;;;10.66;73.04;96789.49;109172;1247;24195;-83
2023/05/29 04:03:34;;;;;;;4.00;2.30;;;;;;;10.74;73.20;96795.45;109215;1269;22512;-83
2023/05/29 04:06:05;;;;;;;5.80;3.10;;;;;;;10.80;73.03;96794.82;109180;1264;25413;-83
2023/05/29 04:08:36;;;;;;;4.60;2.90;;;;;;;10.87;73.01;96795.16;109218;1270;22519;-83
2023/05/29 04:11:08;;;;;;;4.60;2.70;;;;;;;10.91;73.16;96794.33;109203;1270;22544;-82
2023/05/29 04:13:39;;;;;;;4.50;2.90;;;;;;;10.98;73.21;96797.37;109239;1269;22544;-83
2023/05/29 04:16:13;;;;;;;6.70;2.90;;;;;;;11.09;73.63;96799.99;109233;1263;22710;-82
2023/05/29 04:18:44;;;;;;;4.30;3.10;;;;;;;11.18;73.75;96801.67;108925;1266;25420;-83
2023/05/29 04:21:20;;;;;;;5.90;3.70;;;;;;;11.22;73.56;96804.77;109166;1263;22525;-83
2023/05/29 04:23:52;;;;;;;6.40;4.30;;;;;;;11.29;73.40;96807.81;109255;1266;22523;-83
2023/05/29 04:26:25;;;;;;;7.50;4.20;;;;;;;11.37;73.38;96808.38;109196;1263;24203;-83
2023/05/29 04:28:58;;;;;;;7.30;4.20;;;;;;;11.44;73.30;96807.21;109206;1267;22528;-83
2023/05/29 04:31:30;;;;;;;7.20;4.40;;;;;;;11.52;73.23;96809.75;109197;1263;22525;-83
2023/05/29 04:34:04;;;;;;;6.40;4.10;;;;;;;11.62;73.22;96809.55;109241;1269;24198;-83
2023/05/29 04:36:38;;;;;;;6.40;3.70;;;;;;;11.72;73.12;96812.86;109220;1263;23809;-83
2023/05/29 04:39:09;;;;;;;8.40;4.20;;;;;;;11.81;73.21;96816.14;109205;1267;22524;-82
2023/05/29 04:41:41;;;;;;;5.90;4.20;;;;;;;11.91;73.42;96814.45;109250;1264;22547;-83
2023/05/29 04:44:14;;;;;;;7.60;3.90;;;;;;;12.04;73.49;96814.33;109199;1263;22515;-83
2023/05/29 04:46:46;;;;;;;7.20;4.10;;;;;;;12.18;73.49;96809.60;109171;1269;22521;-83
2023/05/29 04:49:20;;;;;;;6.80;4.40;;;;;;;12.33;73.49;96806.19;109272;1270;22546;-83
2023/05/29 04:51:54;;;;;;;8.20;4.20;;;;;;;12.47;73.42;96806.92;109239;1266;22534;-83
2023/05/29 04:54:25;;;;;;;5.90;4.00;;;;;;;12.58;73.10;96804.28;109225;1270;22526;-83
2023/05/29 04:57:03;;;;;;;5.80;4.20;;;;;;;12.74;73.11;96805.41;109197;1266;24209;-83
2023/05/29 04:59:36;;;;;;;7.10;3.80;;;;;;;12.91;72.99;96803.41;109192;1263;24384;-83
2023/05/29 05:02:07;;;;;;;5.10;3.70;;;;;;;13.04;72.45;96804.88;109224;1261;22507;-83
2023/05/29 05:04:38;;;;;;;6.70;4.20;;;;;;;13.19;73.24;96804.19;109380;1270;22588;-83
2023/05/29 05:07:10;;;;;;;8.60;4.40;;;;;;;13.44;73.81;96807.48;109198;1267;25252;-83
2023/05/29 05:09:41;;;;;;;6.80;4.40;;;;;;;13.85;74.20;96802.62;109236;1263;22511;-83
2023/05/29 05:12:12;;;;;;;6.90;4.00;;;;;;;14.54;74.08;96802.76;109175;1270;22610;-83
2023/05/29 05:14:43;;;;;;;6.50;4.30;;;;;;;15.33;72.96;96801.23;109181;1267;24157;-83
2023/05/29 05:17:16;;;;;;;7.70;4.30;;;;;;;16.09;71.55;96799.27;109490;1263;25215;-84
2023/05/29 05:19:49;;;;;;;6.90;4.00;;;;;;;16.78;70.51;96798.22;109184;1266;25293;-84
2023/05/29 05:22:32;;;;;;;7.40;3.60;;;;;;;17.41;69.39;96794.92;109227;1259;22684;-84
2023/05/29 05:25:05;;;;;;;6.70;4.40;;;;;;;17.94;67.97;96799.48;109167;1263;22602;-84
2023/05/29 05:27:36;;;;;;;5.30;3.70;;;;;;;18.25;66.44;96801.14;109191;1267;22540;-84
2023/05/29 05:30:09;;;;;;;5.70;3.60;;;;;;;18.60;65.58;96799.20;109169;1263;22530;-84
2023/05/29 05:32:39;;;;;;;4.90;3.50;;;;;;;19.08;64.55;96796.05;109249;1269;24076;-84
2023/05/29 05:35:11;;;;;;;7.00;3.70;;;;;;;19.37;63.00;96800.23;109227;1267;25287;-84
2023/05/29 05:37:44;;;;;;;5.40;4.10;;;;;;;19.57;61.85;96799.84;109203;1266;22524;-84
2023/05/29 05:40:15;;;;;;;7.60;3.90;;;;;;;19.69;61.39;96799.71;109229;1267;22524;-84
2023/05/29 05:42:46;;;;;;;7.70;4.00;;;;;;;19.93;60.73;96798.07;109189;1263;23877;-84
2023/05/29 05:45:17;;;;;;;8.20;3.90;;;;;;;20.02;59.69;96798.53;109151;1263;24260;-84
2023/05/29 05:47:49;;;;;;;6.40;3.80;;;;;;;20.11;59.33;96794.83;108925;1263;22514;-85
2023/05/29 05:50:21;;;;;;;9.60;4.20;;;;;;;20.44;58.95;96795.79;108872;1271;22518;-85
2023/05/29 05:52:52;;;;;;;5.10;3.60;;;;;;;20.77;57.98;96792.83;108940;1264;22514;-84
2023/05/29 05:55:22;;;;;;;5.00;3.50;;;;;;;21.05;57.28;96796.66;108913;1271;22511;-84
2023/05/29 05:57:53;;;;;;;5.50;3.60;;;;;;;21.51;56.82;96802.67;108928;1271;22514;-85
2023/05/29 06:00:25;;;;;;;6.90;3.50;;;;;;;22.00;56.69;96799.02;108943;1271;24213;-85
2023/05/29 06:02:57;;;;;;;6.20;3.60;;;;;;;22.51;55.87;96798.20;109052;1268;24628;-85
2023/05/29 06:05:28;;;;;;;4.20;2.90;;;;;;;22.78;54.03;96800.36;108910;1271;22507;-85
2023/05/29 06:07:59;;;;;;;6.00;3.20;;;;;;;22.77;53.02;96804.58;108895;1269;22740;-85
2023/05/29 06:10:32;;;;;;;7.10;3.50;;;;;;;22.65;51.30;96806.88;108920;1271;22531;-85
2023/05/29 06:13:03;;;;;;;8.30;3.60;;;;;;;22.59;51.11;96807.95;108893;1267;24254;-85
2023/05/29 06:15:36;;;;;;;4.60;3.30;;;;;;;22.65;50.29;96808.41;108823;1264;25366;-85
2023/05/29 06:18:07;;;;;;;5.70;3.20;;;;;;;22.79;50.58;96811.21;108942;1266;22522;-85
2023/05/29 06:20:41;;;;;;;7.10;3.00;;;;;;;22.89;49.50;96807.13;108883;1268;28775;-84
2023/05/29 06:23:12;;;;;;;4.70;2.90;;;;;;;22.84;49.14;96812.11;108892;1269;22912;-85
2023/05/29 06:25:43;;;;;;;4.30;3.30;;;;;;;22.80;49.05;96819.11;108924;1271;22605;-85
2023/05/29 06:28:15;;;;;;;8.20;3.30;;;;;;;22.95;49.04;96820.39;108854;1268;22686;-85
2023/05/29 06:30:46;;;;;;;6.60;3.20;;;;;;;23.18;48.74;96823.58;108927;1266;24261;-85
2023/05/29 06:33:17;;;;;;;6.50;3.10;;;;;;;23.10;47.63;96826.77;108994;1271;22536;-85
2023/05/29 06:35:48;;;;;;;5.80;2.90;;;;;;;22.97;47.81;96822.67;109295;1271;22820;-86
2023/05/29 06:38:20;;;;;;;5.10;3.00;;;;;;;23.27;48.44;96822.45;109309;1269;22633;-85
2023/05/29 06:40:51;;;;;;;6.90;3.00;;;;;;;23.75;48.22;96823.28;109294;1271;25415;-86
2023/05/29 06:43:22;;;;;;;5.20;2.80;;;;;;;24.13;47.97;96822.02;109391;1271;22571;-82
2023/05/29 06:45:53;;;;;;;5.70;3.30;;;;;;;24.48;47.37;96822.79;108724;1271;22514;-82
2023/05/29 06:48:24;;;;;;;5.80;3.00;;;;;;;24.55;45.80;96828.63;108841;1265;22515;-83
2023/05/29 06:50:55;;;;;;;4.40;2.80;;;;;;;24.06;44.92;96832.35;108809;1271;23872;-83
2023/05/29 06:53:26;;;;;;;3.90;2.80;;;;;;;23.91;46.35;96833.56;108875;1271;22520;-83
2023/05/29 06:59:18;;;;;;;5.70;3.00;;;;;;;24.49;46.35;96837.90;109235;1271;67842;-82
2023/05/29 07:01:53;;;;;;;5.20;3.10;;;;;;;24.67;45.98;96839.05;108862;1266;22514;-82
2023/05/29 07:04:26;;;;;;;6.00;3.00;;;;;;;24.51;44.62;96840.27;108925;1271;22534;-81
2023/05/29 07:06:57;;;;;;;7.00;2.70;;;;;;;24.36;44.79;96846.20;108903;1271;28137;-82
2023/05/29 07:09:32;;;;;;;5.10;2.90;;;;;;;24.60;45.02;96848.99;108884;1271;24420;-81
2023/05/29 07:12:03;;;;;;;5.50;2.80;;;;;;;25.04;45.10;96850.98;108850;1271;22589;-82
2023/05/29 07:14:35;;;;;;;5.80;2.90;;;;;;;25.45;44.95;96851.00;108822;1271;23887;-82
2023/05/29 07:17:06;;;;;;;5.60;3.10;;;;;;;25.82;44.52;96852.64;108962;1260;22515;-83
2023/05/29 07:19:37;;;;;;;6.40;2.90;;;;;;;26.00;43.80;96852.20;108970;1264;22569;-83
2023/05/29 07:22:11;;;;;;;5.60;2.90;;;;;;;26.00;43.45;96853.14;108936;1271;25119;-82
2023/05/29 07:24:42;;;;;;;4.50;3.40;;;;;;;25.98;43.13;96853.73;108981;1271;22524;-82
2023/05/29 07:27:13;;;;;;;5.20;2.80;;;;;;;25.96;43.14;96853.09;108929;1271;22570;-82
2023/05/29 07:29:44;;;;;;;8.20;3.60;;;;;;;26.16;43.10;96854.94;108803;1266;29767;-82
2023/05/29 07:32:15;;;;;;;4.60;3.10;;;;;;;26.27;42.62;96856.50;108925;1266;22505;-83
2023/05/29 07:34:46;;;;;;;9.40;3.20;;;;;;;25.50;40.94;96855.27;108956;1266;22518;-82
2023/05/29 07:37:18;;;;;;;4.80;3.20;;;;;;;24.73;42.30;96857.42;108893;1266;22514;-83
2023/05/29 07:39:49;;;;;;;4.10;3.20;;;;;;;24.35;42.74;96856.64;108860;1271;24429;-83
2023/05/29 07:42:23;;;;;;;5.40;3.30;;;;;;;24.29;44.48;96853.73;108898;1267;22514;-83
2023/05/29 07:44:57;;;;;;;5.00;3.50;;;;;;;24.68;44.94;96853.78;108990;1269;22551;-82
2023/05/29 07:47:27;;;;;;;6.40;3.10;;;;;;;24.93;44.41;96855.16;108958;1269;24228;-81
2023/05/29 07:49:58;;;;;;;7.80;3.60;;;;;;;24.67;43.43;96855.93;108943;1268;26556;-82
2023/05/29 07:52:29;;;;;;;7.70;3.90;;;;;;;24.18;43.64;96862.52;109011;1271;22577;-81
2023/05/29 07:55:01;;;;;;;4.90;3.60;;;;;;;23.94;44.53;96861.30;109000;1251;22544;-81
2023/05/29 07:57:35;;;;;;;7.60;3.70;;;;;;;24.13;44.78;96863.82;108879;1267;22668;-81
2023/05/29 08:00:13;;;;;;;5.40;3.20;;;;;;;24.27;44.71;96861.30;107067;1268;2256676;-84
2023/05/29 08:02:44;;;;;;;6.50;3.30;;;;;;;24.11;45.10;96863.26;108801;1271;22569;-80
2023/05/29 08:05:15;;;;;;;4.20;3.10;;;;;;;24.18;45.52;96861.96;108836;1262;23799;-80
2023/05/29 08:07:48;;;;;;;6.80;3.30;;;;;;;24.21;45.31;96862.27;108908;1271;23808;-80
2023/05/29 08:10:19;;;;;;;12.50;4.30;;;;;;;24.25;45.33;96864.74;108856;1263;22511;-81
2023/05/29 08:12:50;;;;;;;8.40;3.60;;;;;;;24.18;45.08;96863.38;108892;1269;22975;-81
2023/05/29 08:15:23;;;;;;;5.10;3.20;;;;;;;24.12;45.08;96861.25;108956;1266;24215;-81
2023/05/29 08:17:54;;;;;;;6.70;3.30;;;;;;;24.00;45.18;96865.38;108905;1271;179801;-81
2023/05/29 08:20:25;;;;;;;6.00;3.70;;;;;;;23.94;45.25;96864.10;108788;1269;24919;-81
2023/05/29 08:22:56;;;;;;;5.50;3.30;;;;;;;23.84;45.26;96859.97;109015;1265;22517;-80
2023/05/29 08:25:27;;;;;;;8.40;3.70;;;;;;;23.76;45.43;96861.34;108876;1265;23237;-81
2023/05/29 08:27:58;;;;;;;6.60;3.30;;;;;;;23.71;45.36;96864.98;108910;1271;24228;-81
2023/05/29 08:30:29;;;;;;;5.90;3.40;;;;;;;23.61;45.25;96866.62;108839;1267;27362;-81
2023/05/29 08:33:00;;;;;;;9.00;3.50;;;;;;;23.54;45.48;96865.23;108922;1269;22526;-80
2023/05/29 08:35:31;;;;;;;6.10;3.70;;;;;;;23.55;45.72;96863.32;108898;1270;25268;-81
2023/05/29 08:38:03;;;;;;;4.80;3.60;;;;;;;23.54;45.61;96866.31;108777;1269;22514;-82
2023/05/29 08:40:34;;;;;;;6.30;4.10;;;;;;;23.20;44.99;96867.98;108925;1269;22522;-82
2023/05/29 08:43:13;;;;;;;5.10;3.30;;;;;;;22.98;45.75;96864.97;108837;1271;22593;-81
2023/05/29 08:45:46;;;;;;;5.90;3.60;;;;;;;22.98;46.36;96868.20;108841;1249;22500;-82
2023/05/29 08:48:19;;;;;;;5.80;3.30;;;;;;;22.93;45.54;96868.48;108913;1263;22524;-81
2023/05/29 08:50:53;;;;;;;10.80;3.30;;;;;;;22.72;45.92;96871.52;108919;1263;24717;-81
2023/05/29 08:53:26;;;;;;;6.40;3.60;;;;;;;22.70;46.14;96878.65;108933;1267;25339;-82
2023/05/29 08:55:58;;;;;;;5.50;3.10;;;;;;;22.63;46.28;96878.86;108882;1271;22637;-81
2023/05/29 08:58:29;;;;;;;6.40;3.40;;;;;;;22.66;46.61;96878.48;108786;1271;22594;-81
2023/05/29 09:01:01;;;;;;;7.10;3.80;;;;;;;22.68;46.36;96877.91;108786;1271;22531;-82
2023/05/29 09:03:32;;;;;;;4.90;3.60;;;;;;;22.68;46.72;96877.06;108871;1267;25284;-82
2023/05/29 09:06:04;;;;;;;8.00;3.40;;;;;;;22.68;46.70;96876.14;108814;1271;25335;-81
2023/05/29 09:08:36;;;;;;;5.50;3.60;;;;;;;22.60;46.89;96878.40;108794;1271;22587;-81
2023/05/29 09:11:08;;;;;;;6.40;3.60;;;;;;;22.61;47.08;96875.40;108803;1271;24373;-81
2023/05/29 09:13:39;;;;;;;10.30;4.00;;;;;;;22.58;47.19;96877.36;108878;1271;24391;-81
2023/05/29 09:16:11;;;;;;;7.50;3.60;;;;;;;22.50;46.79;96879.55;108866;1271;22889;-81
2023/05/29 09:18:45;;;;;;;6.60;3.70;;;;;;;22.39;46.69;96877.89;108851;1271;22538;-82
2023/05/29 09:21:29;;;;;;;7.30;3.70;;;;;;;22.05;46.94;96879.06;108804;1268;22511;-82
2023/05/29 09:24:07;;;;;;;6.80;4.40;;;;;;;22.05;47.56;96876.52;108855;1269;22626;-81
2023/05/29 09:26:38;;;;;;;8.10;4.60;;;;;;;22.06;47.94;96878.86;108879;1271;25514;-81
2023/05/29 09:29:10;;;;;;;8.60;4.60;;;;;;;22.08;48.13;96873.77;108813;1271;22655;-78
2023/05/29 09:31:48;;;;;;;8.40;4.90;;;;;;;22.04;48.24;96870.85;108917;1269;24233;-81
2023/05/29 09:34:19;;;;;;;9.30;4.50;;;;;;;22.02;48.47;96869.80;108839;1271;22532;-81
2023/05/29 09:36:51;;;;;;;8.40;4.80;;;;;;;22.03;49.11;96866.05;108881;1264;22586;-81
2023/05/29 09:39:22;;;;;;;10.40;5.10;;;;;;;22.08;49.18;96863.36;108869;1271;23058;-80
2023/05/29 09:41:57;;;;;;;10.10;5.00;;;;;;;22.10;49.39;96870.38;108976;1266;23027;-74
2023/05/29 09:44:33;;;;;;;5.80;4.50;;;;;;;22.14;49.41;96869.16;108970;1268;24216;-74
2023/05/29 09:47:07;;;;;;;8.40;4.20;;;;;;;22.14;49.49;96866.85;109083;1267;22531;-81
2023/05/29 09:49:45;;;;;;;7.30;4.30;;;;;;;22.15;49.70;96866.64;108956;1262;59938;-81
2023/05/29 09:52:22;;;;;;;7.50;4.00;;;;;;;22.18;49.58;96869.50;108973;1266;22623;-74
2023/05/29 09:54:56;;;;;;;7.60;4.30;;;;;;;22.17;49.11;96866.75;109045;1267;22570;-74
2023/05/29 09:57:28;;;;;;;7.70;4.30;;;;;;;21.89;49.25;96867.62;109033;1271;23880;-74
2023/05/29 10:00:12;;;;;;;8.60;4.50;;;;;;;21.88;49.46;96869.36;109058;1271;22616;-74
2023/05/29 10:02:45;;;;;;;7.40;4.90;;;;;;;21.87;49.34;96869.81;109099;1264;24707;-85
2023/05/29 10:05:21;;;;;;;6.50;3.80;;;;;;;21.89;49.71;96869.69;108940;1266;22520;-75
2023/05/29 10:07:55;;;;;;;8.70;4.50;;;;;;;21.94;49.79;96873.08;108954;1269;24356;-75
2023/05/29 10:10:30;;;;;;;8.30;4.20;;;;;;;21.97;50.34;96876.64;108978;1269;52842;-76
2023/05/29 10:13:06;;;;;;;7.60;4.60;;;;;;;21.99;49.83;96877.67;108831;1266;22754;-76
2023/05/29 10:15:38;;;;;;;8.20;4.50;;;;;;;21.85;50.01;96877.24;108820;1268;22703;-75
2023/05/29 10:18:21;;;;;;;8.40;4.80;;;;;;;21.88;50.57;96874.55;108929;1269;22534;-76
2023/05/29 10:20:58;;;;;;;6.30;4.60;;;;;;;21.95;50.77;96877.51;108921;1271;24181;-76
2023/05/29 10:23:31;;;;;;;10.90;5.10;;;;;;;22.00;50.16;96875.91;108972;1260;24199;-76
2023/05/29 10:26:11;;;;;;;9.00;4.20;;;;;;;21.94;49.66;96873.59;108914;1271;22521;-75
2023/05/29 10:28:47;;;;;;;10.30;4.50;;;;;;;21.90;49.78;96871.58;108999;1271;22511;-75
2023/05/29 10:31:25;;;;;;;8.30;4.90;;;;;;;21.87;49.84;96872.58;108873;1264;22565;-75
2023/05/29 10:34:12;;;;;;;7.70;4.70;;;;;;;21.87;50.41;96876.91;108901;1265;22536;-75
2023/05/29 10:36:50;;;;;;;7.40;4.30;;;;;;;21.98;50.52;96871.47;108892;1271;22515;-75
2023/05/29 10:39:24;;;;;;;7.40;4.00;;;;;;;21.96;49.90;96867.63;108887;1264;22526;-76
2023/05/29 10:41:58;;;;;;;9.70;4.00;;;;;;;21.90;50.14;96864.95;109004;1271;22526;-75
2023/05/29 10:44:42;;;;;;;8.80;5.00;;;;;;;21.91;49.95;96869.91;108924;1269;24253;-75
2023/05/29 10:47:14;;;;;;;6.30;4.30;;;;;;;21.84;49.82;96868.19;108970;1264;22596;-76
2023/05/29 10:49:53;;;;;;;6.70;4.10;;;;;;;21.87;50.32;96864.34;108956;1267;23359;-76
2023/05/29 10:52:30;;;;;;;7.20;4.10;;;;;;;21.85;50.17;96863.75;108974;1266;22525;-75
2023/05/29 10:55:03;;;;;;;6.70;3.70;;;;;;;21.87;50.63;96865.81;108929;1266;27486;-76
2023/05/29 10:57:36;;;;;;;6.60;4.00;;;;;;;21.97;50.98;96865.58;108866;1266;25291;-75
2023/05/29 11:00:18;;;;;;;6.30;4.40;;;;;;;22.02;50.76;96859.79;108778;1266;22572;-78
2023/05/29 11:02:53;;;;;;;8.20;4.30;;;;;;;22.01;50.08;96859.44;108883;1271;25343;-76
2023/05/29 11:05:28;;;;;;;8.40;4.60;;;;;;;22.00;50.02;96857.55;108857;1269;23244;-74
2023/05/29 11:08:05;;;;;;;8.50;4.30;;;;;;;21.90;49.55;96855.93;108882;1269;22514;-74
2023/05/29 11:10:58;;;;;;;7.20;4.10;;;;;;;21.86;49.79;96856.21;108802;1271;24985;-74
2023/05/29 11:13:35;;;;;;;6.90;3.70;;;;;;;21.85;49.26;96856.56;108844;1265;22549;-73
2023/05/29 11:16:15;;;;;;;6.50;4.10;;;;;;;21.77;49.32;96851.73;108759;1271;22514;-74
2023/05/29 11:18:47;;;;;;;5.00;3.60;;;;;;;21.76;49.14;96850.30;108846;1271;22532;-74
2023/05/29 11:21:34;;;;;;;7.40;4.10;;;;;;;21.74;49.73;96847.86;108831;1265;22673;-74
2023/05/29 11:24:06;;;;;;;9.90;4.50;;;;;;;21.79;49.92;96851.31;108886;1269;22540;-74
2023/05/29 11:26:40;;;;;;;6.60;4.00;;;;;;;21.79;49.05;96852.31;108822;1268;23307;-74
2023/05/29 11:29:13;;;;;;;7.40;4.10;;;;;;;21.80;48.88;96847.55;108698;1269;22523;-74
2023/05/29 11:31:45;;;;;;;9.50;4.70;;;;;;;21.82;48.94;96852.31;108872;1250;22534;-74
2023/05/29 11:34:18;;;;;;;7.30;4.10;;;;;;;21.86;49.03;96851.13;108913;1271;25577;-74
2023/05/29 11:36:54;;;;;;;8.90;4.10;;;;;;;21.90;48.45;96848.21;108894;1269;22517;-77
2023/05/29 11:39:25;;;;;;;5.80;4.20;;;;;;;21.86;48.06;96849.03;108887;1266;22521;-77
2023/05/29 11:41:57;;;;;;;5.10;4.10;;;;;;;21.86;47.71;96845.41;108794;1271;22513;-76
2023/05/29 11:44:28;;;;;;;5.10;3.80;;;;;;;21.90;48.18;96841.89;108882;1271;22518;-76
2023/05/29 11:47:09;;;;;;;6.90;4.10;;;;;;;21.95;48.01;96838.14;108793;1267;22512;-76
2023/05/29 11:49:40;;;;;;;8.10;4.20;;;;;;;21.83;47.31;96836.59;108870;1267;23748;-77
2023/05/29 11:52:13;;;;;;;9.10;4.40;;;;;;;21.84;47.36;96837.27;108924;1271;22526;-78
2023/05/29 11:54:50;;;;;;;8.00;3.90;;;;;;;21.86;47.42;96834.22;108893;1271;22527;-77
2023/05/29 11:57:23;;;;;;;5.50;4.30;;;;;;;21.88;47.13;96829.18;108811;1271;22502;-77